sensor_id;sensor_type;location;lat;lon;timestamp;P1;durP1;ratioP1;P2;durP2;ratioP2
46753;SDS011;32500;50.620;3.400;2024-03-08T00:01:39;150.23;;;60.22;;
46753;SDS011;32500;50.620;3.400;2024-03-08T00:04:05;148.50;;;60.25;;
46753;SDS011;32500;50.620;3.400;2024-03-08T00:06:31;148.32;;;60.33;;
46753;SDS011;32500;50.620;3.400;2024-03-08T00:08:57;149.13;;;59.83;;
46753;SDS011;32500;50.620;3.400;2024-03-08T00:11:23;150.20;;;60.35;;
46753;SDS011;32500;50.620;3.400;2024-03-08T00:13:51;146.98;;;59.55;;
46753;SDS011;32500;50.620;3.400;2024-03-08T00:16:17;148.50;;;60.08;;
46753;SDS011;32500;50.620;3.400;2024-03-08T00:18:44;148.70;;;59.75;;
46753;SDS011;32500;50.620;3.400;2024-03-08T00:21:10;148.02;;;60.15;;
46753;SDS011;32500;50.620;3.400;2024-03-08T00:23:37;150.65;;;60.15;;
46753;SDS011;32500;50.620;3.400;2024-03-08T00:26:03;148.10;;;59.60;;
46753;SDS011;32500;50.620;3.400;2024-03-08T00:28:29;148.63;;;60.33;;
46753;SDS011;32500;50.620;3.400;2024-03-08T00:30:55;148.73;;;59.90;;
46753;SDS011;32500;50.620;3.400;2024-03-08T00:33:21;147.32;;;59.45;;
46753;SDS011;32500;50.620;3.400;2024-03-08T00:35:47;148.85;;;60.47;;
46753;SDS011;32500;50.620;3.400;2024-03-08T00:38:13;149.00;;;59.17;;
46753;SDS011;32500;50.620;3.400;2024-03-08T00:40:38;147.85;;;60.15;;
46753;SDS011;32500;50.620;3.400;2024-03-08T00:43:05;149.13;;;60.60;;
46753;SDS011;32500;50.620;3.400;2024-03-08T00:45:31;146.75;;;59.60;;
46753;SDS011;32500;50.620;3.400;2024-03-08T00:47:56;147.27;;;60.33;;
46753;SDS011;32500;50.620;3.400;2024-03-08T00:50:22;147.30;;;59.58;;
46753;SDS011;32500;50.620;3.400;2024-03-08T00:52:48;146.80;;;58.92;;
46753;SDS011;32500;50.620;3.400;2024-03-08T00:55:14;147.48;;;59.85;;
46753;SDS011;32500;50.620;3.400;2024-03-08T00:57:39;147.35;;;60.13;;
46753;SDS011;32500;50.620;3.400;2024-03-08T01:00:06;148.75;;;60.15;;
46753;SDS011;32500;50.620;3.400;2024-03-08T01:02:35;147.30;;;59.83;;
46753;SDS011;32500;50.620;3.400;2024-03-08T01:05:01;145.52;;;59.08;;
46753;SDS011;32500;50.620;3.400;2024-03-08T01:07:27;148.98;;;60.00;;
46753;SDS011;32500;50.620;3.400;2024-03-08T01:09:52;148.23;;;59.70;;
46753;SDS011;32500;50.620;3.400;2024-03-08T01:12:18;147.20;;;60.05;;
46753;SDS011;32500;50.620;3.400;2024-03-08T01:14:43;146.45;;;59.08;;
46753;SDS011;32500;50.620;3.400;2024-03-08T01:17:09;146.20;;;59.33;;
46753;SDS011;32500;50.620;3.400;2024-03-08T01:19:35;146.70;;;59.17;;
46753;SDS011;32500;50.620;3.400;2024-03-08T01:22:01;146.90;;;59.72;;
46753;SDS011;32500;50.620;3.400;2024-03-08T01:24:26;145.50;;;59.17;;
46753;SDS011;32500;50.620;3.400;2024-03-08T01:26:52;148.02;;;60.20;;
46753;SDS011;32500;50.620;3.400;2024-03-08T01:29:18;148.02;;;59.33;;
46753;SDS011;32500;50.620;3.400;2024-03-08T01:31:44;146.88;;;59.35;;
46753;SDS011;32500;50.620;3.400;2024-03-08T01:34:09;146.18;;;58.80;;
46753;SDS011;32500;50.620;3.400;2024-03-08T01:36:35;146.00;;;59.10;;
46753;SDS011;32500;50.620;3.400;2024-03-08T01:39:02;145.90;;;58.47;;
46753;SDS011;32500;50.620;3.400;2024-03-08T01:41:33;147.45;;;59.15;;
46753;SDS011;32500;50.620;3.400;2024-03-08T01:43:59;148.30;;;59.42;;
46753;SDS011;32500;50.620;3.400;2024-03-08T01:46:24;145.38;;;58.88;;
46753;SDS011;32500;50.620;3.400;2024-03-08T01:48:53;145.45;;;59.00;;
46753;SDS011;32500;50.620;3.400;2024-03-08T01:51:19;144.30;;;58.45;;
46753;SDS011;32500;50.620;3.400;2024-03-08T01:53:46;144.18;;;58.97;;
46753;SDS011;32500;50.620;3.400;2024-03-08T01:56:13;145.93;;;59.00;;
46753;SDS011;32500;50.620;3.400;2024-03-08T01:58:40;146.98;;;59.58;;
46753;SDS011;32500;50.620;3.400;2024-03-08T02:01:08;145.38;;;59.17;;
46753;SDS011;32500;50.620;3.400;2024-03-08T02:03:41;146.25;;;59.15;;
46753;SDS011;32500;50.620;3.400;2024-03-08T02:06:08;145.30;;;59.10;;
46753;SDS011;32500;50.620;3.400;2024-03-08T02:08:36;145.98;;;58.58;;
46753;SDS011;32500;50.620;3.400;2024-03-08T02:11:03;145.68;;;58.95;;
46753;SDS011;32500;50.620;3.400;2024-03-08T02:13:29;145.07;;;59.10;;
46753;SDS011;32500;50.620;3.400;2024-03-08T02:15:56;146.30;;;58.92;;
46753;SDS011;32500;50.620;3.400;2024-03-08T02:18:25;144.93;;;58.80;;
46753;SDS011;32500;50.620;3.400;2024-03-08T02:20:52;146.07;;;58.22;;
46753;SDS011;32500;50.620;3.400;2024-03-08T02:23:22;144.15;;;58.55;;
46753;SDS011;32500;50.620;3.400;2024-03-08T02:25:51;146.23;;;58.95;;
46753;SDS011;32500;50.620;3.400;2024-03-08T02:28:19;145.48;;;59.15;;
46753;SDS011;32500;50.620;3.400;2024-03-08T02:30:45;145.43;;;58.92;;
46753;SDS011;32500;50.620;3.400;2024-03-08T02:33:13;145.85;;;58.72;;
46753;SDS011;32500;50.620;3.400;2024-03-08T02:35:45;145.77;;;58.75;;
46753;SDS011;32500;50.620;3.400;2024-03-08T02:38:15;144.40;;;58.70;;
46753;SDS011;32500;50.620;3.400;2024-03-08T02:40:42;143.83;;;58.43;;
46753;SDS011;32500;50.620;3.400;2024-03-08T02:43:11;147.77;;;59.60;;
46753;SDS011;32500;50.620;3.400;2024-03-08T02:45:38;145.13;;;58.35;;
46753;SDS011;32500;50.620;3.400;2024-03-08T02:48:04;146.30;;;59.28;;
46753;SDS011;32500;50.620;3.400;2024-03-08T02:50:33;144.25;;;58.35;;
46753;SDS011;32500;50.620;3.400;2024-03-08T02:53:02;146.07;;;59.28;;
46753;SDS011;32500;50.620;3.400;2024-03-08T02:55:29;146.05;;;59.67;;
46753;SDS011;32500;50.620;3.400;2024-03-08T02:57:55;145.32;;;59.13;;
46753;SDS011;32500;50.620;3.400;2024-03-08T03:00:21;146.40;;;58.72;;
46753;SDS011;32500;50.620;3.400;2024-03-08T03:02:48;145.35;;;59.13;;
46753;SDS011;32500;50.620;3.400;2024-03-08T03:05:19;147.10;;;59.67;;
46753;SDS011;32500;50.620;3.400;2024-03-08T03:07:45;143.88;;;58.25;;
46753;SDS011;32500;50.620;3.400;2024-03-08T03:10:11;144.27;;;58.63;;
46753;SDS011;32500;50.620;3.400;2024-03-08T03:12:43;146.10;;;58.67;;
46753;SDS011;32500;50.620;3.400;2024-03-08T03:15:10;144.65;;;58.63;;
46753;SDS011;32500;50.620;3.400;2024-03-08T03:17:36;144.57;;;58.40;;
46753;SDS011;32500;50.620;3.400;2024-03-08T03:20:04;146.27;;;59.28;;
46753;SDS011;32500;50.620;3.400;2024-03-08T03:22:35;145.13;;;59.05;;
46753;SDS011;32500;50.620;3.400;2024-03-08T03:25:02;145.65;;;58.50;;
46753;SDS011;32500;50.620;3.400;2024-03-08T03:27:29;144.88;;;59.03;;
46753;SDS011;32500;50.620;3.400;2024-03-08T03:29:55;144.30;;;58.55;;
46753;SDS011;32500;50.620;3.400;2024-03-08T03:32:22;146.27;;;58.75;;
46753;SDS011;32500;50.620;3.400;2024-03-08T03:34:48;146.75;;;58.83;;
46753;SDS011;32500;50.620;3.400;2024-03-08T03:37:17;143.63;;;58.08;;
46753;SDS011;32500;50.620;3.400;2024-03-08T03:39:44;145.48;;;58.55;;
46753;SDS011;32500;50.620;3.400;2024-03-08T03:42:18;144.07;;;58.70;;
46753;SDS011;32500;50.620;3.400;2024-03-08T03:44:48;146.75;;;58.70;;
46753;SDS011;32500;50.620;3.400;2024-03-08T03:47:14;143.20;;;58.47;;
46753;SDS011;32500;50.620;3.400;2024-03-08T03:49:40;145.40;;;59.15;;
46753;SDS011;32500;50.620;3.400;2024-03-08T03:52:07;145.15;;;58.58;;
46753;SDS011;32500;50.620;3.400;2024-03-08T03:54:33;145.57;;;59.00;;
46753;SDS011;32500;50.620;3.400;2024-03-08T03:56:58;145.75;;;58.83;;
46753;SDS011;32500;50.620;3.400;2024-03-08T03:59:25;146.23;;;58.75;;
46753;SDS011;32500;50.620;3.400;2024-03-08T04:01:54;143.63;;;58.33;;
46753;SDS011;32500;50.620;3.400;2024-03-08T04:04:20;148.57;;;59.08;;
46753;SDS011;32500;50.620;3.400;2024-03-08T04:06:46;144.52;;;58.33;;
46753;SDS011;32500;50.620;3.400;2024-03-08T04:09:12;143.73;;;58.65;;
46753;SDS011;32500;50.620;3.400;2024-03-08T04:11:38;145.30;;;58.75;;
46753;SDS011;32500;50.620;3.400;2024-03-08T04:14:04;144.45;;;58.88;;
46753;SDS011;32500;50.620;3.400;2024-03-08T04:16:30;143.88;;;58.90;;
46753;SDS011;32500;50.620;3.400;2024-03-08T04:18:56;143.88;;;58.28;;
46753;SDS011;32500;50.620;3.400;2024-03-08T04:21:29;144.27;;;58.85;;
46753;SDS011;32500;50.620;3.400;2024-03-08T04:23:55;143.63;;;58.63;;
46753;SDS011;32500;50.620;3.400;2024-03-08T04:26:21;144.63;;;59.13;;
46753;SDS011;32500;50.620;3.400;2024-03-08T04:28:47;144.07;;;58.33;;
46753;SDS011;32500;50.620;3.400;2024-03-08T04:31:13;144.02;;;58.60;;
46753;SDS011;32500;50.620;3.400;2024-03-08T04:33:39;144.55;;;58.92;;
46753;SDS011;32500;50.620;3.400;2024-03-08T04:36:04;143.10;;;58.53;;
46753;SDS011;32500;50.620;3.400;2024-03-08T04:38:30;144.10;;;58.28;;
46753;SDS011;32500;50.620;3.400;2024-03-08T04:40:56;144.40;;;59.17;;
46753;SDS011;32500;50.620;3.400;2024-03-08T04:43:23;143.70;;;58.78;;
46753;SDS011;32500;50.620;3.400;2024-03-08T04:45:52;143.98;;;58.25;;
46753;SDS011;32500;50.620;3.400;2024-03-08T04:48:18;146.77;;;58.75;;
46753;SDS011;32500;50.620;3.400;2024-03-08T04:50:45;144.50;;;58.83;;
46753;SDS011;32500;50.620;3.400;2024-03-08T04:53:11;144.35;;;58.17;;
46753;SDS011;32500;50.620;3.400;2024-03-08T04:55:36;146.57;;;58.75;;
46753;SDS011;32500;50.620;3.400;2024-03-08T04:58:03;142.98;;;58.60;;
46753;SDS011;32500;50.620;3.400;2024-03-08T05:00:31;146.48;;;58.72;;
46753;SDS011;32500;50.620;3.400;2024-03-08T05:02:57;145.95;;;59.05;;
46753;SDS011;32500;50.620;3.400;2024-03-08T05:05:23;144.80;;;58.83;;
46753;SDS011;32500;50.620;3.400;2024-03-08T05:07:49;144.75;;;59.22;;
46753;SDS011;32500;50.620;3.400;2024-03-08T05:10:15;144.90;;;59.17;;
46753;SDS011;32500;50.620;3.400;2024-03-08T05:12:42;144.70;;;58.50;;
46753;SDS011;32500;50.620;3.400;2024-03-08T05:15:08;144.52;;;58.90;;
46753;SDS011;32500;50.620;3.400;2024-03-08T05:17:34;142.68;;;58.20;;
46753;SDS011;32500;50.620;3.400;2024-03-08T05:20:00;145.60;;;58.78;;
46753;SDS011;32500;50.620;3.400;2024-03-08T05:22:25;143.40;;;58.55;;
46753;SDS011;32500;50.620;3.400;2024-03-08T05:24:51;145.35;;;59.03;;
46753;SDS011;32500;50.620;3.400;2024-03-08T05:27:17;143.32;;;58.60;;
46753;SDS011;32500;50.620;3.400;2024-03-08T05:29:42;143.93;;;58.53;;
46753;SDS011;32500;50.620;3.400;2024-03-08T05:32:08;144.10;;;59.03;;
46753;SDS011;32500;50.620;3.400;2024-03-08T05:34:35;144.68;;;59.15;;
46753;SDS011;32500;50.620;3.400;2024-03-08T05:37:00;142.88;;;58.10;;
46753;SDS011;32500;50.620;3.400;2024-03-08T05:39:26;144.57;;;58.97;;
46753;SDS011;32500;50.620;3.400;2024-03-08T05:41:52;143.45;;;58.17;;
46753;SDS011;32500;50.620;3.400;2024-03-08T05:44:20;143.55;;;58.22;;
46753;SDS011;32500;50.620;3.400;2024-03-08T05:46:46;145.10;;;58.55;;
46753;SDS011;32500;50.620;3.400;2024-03-08T05:49:11;144.52;;;58.50;;
46753;SDS011;32500;50.620;3.400;2024-03-08T05:51:38;142.80;;;58.33;;
46753;SDS011;32500;50.620;3.400;2024-03-08T05:54:05;141.93;;;57.88;;
46753;SDS011;32500;50.620;3.400;2024-03-08T05:56:34;143.55;;;58.55;;
46753;SDS011;32500;50.620;3.400;2024-03-08T05:59:01;142.45;;;58.15;;
46753;SDS011;32500;50.620;3.400;2024-03-08T06:01:27;144.73;;;58.35;;
46753;SDS011;32500;50.620;3.400;2024-03-08T06:03:53;143.70;;;58.50;;
46753;SDS011;32500;50.620;3.400;2024-03-08T06:06:21;143.77;;;58.70;;
46753;SDS011;32500;50.620;3.400;2024-03-08T06:08:47;143.93;;;58.95;;
46753;SDS011;32500;50.620;3.400;2024-03-08T06:11:14;144.30;;;58.53;;
46753;SDS011;32500;50.620;3.400;2024-03-08T06:13:42;143.18;;;58.53;;
46753;SDS011;32500;50.620;3.400;2024-03-08T06:16:12;143.07;;;58.63;;
46753;SDS011;32500;50.620;3.400;2024-03-08T06:18:38;143.98;;;58.45;;
46753;SDS011;32500;50.620;3.400;2024-03-08T06:21:06;143.07;;;58.50;;
46753;SDS011;32500;50.620;3.400;2024-03-08T06:23:34;144.38;;;58.85;;
46753;SDS011;32500;50.620;3.400;2024-03-08T06:26:06;143.63;;;58.20;;
46753;SDS011;32500;50.620;3.400;2024-03-08T06:28:34;147.63;;;59.15;;
46753;SDS011;32500;50.620;3.400;2024-03-08T06:31:01;143.68;;;58.45;;
46753;SDS011;32500;50.620;3.400;2024-03-08T06:33:27;144.63;;;59.42;;
46753;SDS011;32500;50.620;3.400;2024-03-08T06:35:54;143.45;;;58.72;;
46753;SDS011;32500;50.620;3.400;2024-03-08T06:38:22;143.27;;;58.53;;
46753;SDS011;32500;50.620;3.400;2024-03-08T06:40:51;143.80;;;58.72;;
46753;SDS011;32500;50.620;3.400;2024-03-08T06:43:18;143.43;;;58.38;;
46753;SDS011;32500;50.620;3.400;2024-03-08T06:45:46;144.40;;;59.03;;
46753;SDS011;32500;50.620;3.400;2024-03-08T06:48:17;144.55;;;59.05;;
46753;SDS011;32500;50.620;3.400;2024-03-08T06:50:44;144.18;;;58.97;;
46753;SDS011;32500;50.620;3.400;2024-03-08T06:53:10;143.60;;;59.08;;
46753;SDS011;32500;50.620;3.400;2024-03-08T06:55:37;144.35;;;58.38;;
46753;SDS011;32500;50.620;3.400;2024-03-08T06:58:03;143.48;;;58.78;;
46753;SDS011;32500;50.620;3.400;2024-03-08T07:00:28;144.10;;;59.40;;
46753;SDS011;32500;50.620;3.400;2024-03-08T07:02:55;143.82;;;58.67;;
46753;SDS011;32500;50.620;3.400;2024-03-08T07:05:25;143.05;;;58.47;;
46753;SDS011;32500;50.620;3.400;2024-03-08T07:07:54;143.13;;;59.05;;
46753;SDS011;32500;50.620;3.400;2024-03-08T07:10:23;145.57;;;58.85;;
46753;SDS011;32500;50.620;3.400;2024-03-08T07:12:51;146.20;;;59.67;;
46753;SDS011;32500;50.620;3.400;2024-03-08T07:15:18;145.65;;;59.08;;
46753;SDS011;32500;50.620;3.400;2024-03-08T07:17:45;143.43;;;58.60;;
46753;SDS011;32500;50.620;3.400;2024-03-08T07:20:11;145.93;;;59.03;;
46753;SDS011;32500;50.620;3.400;2024-03-08T07:22:39;144.63;;;58.85;;
46753;SDS011;32500;50.620;3.400;2024-03-08T07:25:08;148.07;;;58.75;;
46753;SDS011;32500;50.620;3.400;2024-03-08T07:27:49;146.60;;;58.75;;
46753;SDS011;32500;50.620;3.400;2024-03-08T07:30:22;143.32;;;58.75;;
46753;SDS011;32500;50.620;3.400;2024-03-08T07:33:08;142.95;;;57.78;;
46753;SDS011;32500;50.620;3.400;2024-03-08T07:35:37;142.75;;;58.22;;
46753;SDS011;32500;50.620;3.400;2024-03-08T07:38:06;143.68;;;58.60;;
46753;SDS011;32500;50.620;3.400;2024-03-08T07:40:37;144.10;;;58.67;;
46753;SDS011;32500;50.620;3.400;2024-03-08T07:43:08;144.25;;;57.95;;
46753;SDS011;32500;50.620;3.400;2024-03-08T07:45:35;143.90;;;58.20;;
46753;SDS011;32500;50.620;3.400;2024-03-08T07:48:01;144.73;;;58.92;;
46753;SDS011;32500;50.620;3.400;2024-03-08T07:50:28;145.05;;;58.00;;
46753;SDS011;32500;50.620;3.400;2024-03-08T07:52:54;142.30;;;58.20;;
46753;SDS011;32500;50.620;3.400;2024-03-08T07:55:19;142.88;;;57.97;;
46753;SDS011;32500;50.620;3.400;2024-03-08T07:57:45;142.85;;;58.47;;
46753;SDS011;32500;50.620;3.400;2024-03-08T08:00:12;141.18;;;57.58;;
46753;SDS011;32500;50.620;3.400;2024-03-08T08:02:42;142.00;;;57.97;;
46753;SDS011;32500;50.620;3.400;2024-03-08T08:05:11;144.77;;;58.90;;
46753;SDS011;32500;50.620;3.400;2024-03-08T08:07:38;147.68;;;59.40;;
46753;SDS011;32500;50.620;3.400;2024-03-08T08:10:06;148.23;;;60.00;;
46753;SDS011;32500;50.620;3.400;2024-03-08T08:12:32;145.88;;;59.50;;
46753;SDS011;32500;50.620;3.400;2024-03-08T08:14:59;146.52;;;59.75;;
46753;SDS011;32500;50.620;3.400;2024-03-08T08:17:25;149.48;;;61.00;;
46753;SDS011;32500;50.620;3.400;2024-03-08T08:19:51;149.65;;;59.78;;
46753;SDS011;32500;50.620;3.400;2024-03-08T08:22:16;148.13;;;59.72;;
46753;SDS011;32500;50.620;3.400;2024-03-08T08:24:43;150.85;;;60.50;;
46753;SDS011;32500;50.620;3.400;2024-03-08T08:27:08;151.13;;;60.38;;
46753;SDS011;32500;50.620;3.400;2024-03-08T08:29:34;152.05;;;60.20;;
46753;SDS011;32500;50.620;3.400;2024-03-08T08:32:00;154.25;;;60.97;;
46753;SDS011;32500;50.620;3.400;2024-03-08T08:34:26;151.38;;;61.28;;
46753;SDS011;32500;50.620;3.400;2024-03-08T08:36:52;154.48;;;61.25;;
46753;SDS011;32500;50.620;3.400;2024-03-08T08:39:18;151.70;;;62.70;;
46753;SDS011;32500;50.620;3.400;2024-03-08T08:41:44;155.65;;;63.30;;
46753;SDS011;32500;50.620;3.400;2024-03-08T08:44:09;152.38;;;63.60;;
46753;SDS011;32500;50.620;3.400;2024-03-08T08:46:37;159.02;;;64.43;;
46753;SDS011;32500;50.620;3.400;2024-03-08T08:49:04;155.50;;;65.30;;
46753;SDS011;32500;50.620;3.400;2024-03-08T08:51:31;154.77;;;63.95;;
46753;SDS011;32500;50.620;3.400;2024-03-08T08:53:58;157.75;;;64.53;;
46753;SDS011;32500;50.620;3.400;2024-03-08T08:56:24;158.20;;;64.35;;
46753;SDS011;32500;50.620;3.400;2024-03-08T08:58:51;163.38;;;64.95;;
46753;SDS011;32500;50.620;3.400;2024-03-08T09:01:18;159.10;;;64.88;;
46753;SDS011;32500;50.620;3.400;2024-03-08T09:03:44;160.60;;;66.13;;
46753;SDS011;32500;50.620;3.400;2024-03-08T09:06:11;163.40;;;65.13;;
46753;SDS011;32500;50.620;3.400;2024-03-08T09:08:38;157.85;;;65.45;;
46753;SDS011;32500;50.620;3.400;2024-03-08T09:11:04;161.15;;;66.22;;
46753;SDS011;32500;50.620;3.400;2024-03-08T09:13:30;173.25;;;65.88;;
46753;SDS011;32500;50.620;3.400;2024-03-08T09:15:56;163.05;;;65.88;;
46753;SDS011;32500;50.620;3.400;2024-03-08T09:18:22;163.23;;;65.63;;
46753;SDS011;32500;50.620;3.400;2024-03-08T09:20:49;155.65;;;65.40;;
46753;SDS011;32500;50.620;3.400;2024-03-08T09:23:15;160.55;;;66.03;;
46753;SDS011;32500;50.620;3.400;2024-03-08T09:25:42;158.65;;;65.93;;
46753;SDS011;32500;50.620;3.400;2024-03-08T09:28:08;163.40;;;66.20;;
46753;SDS011;32500;50.620;3.400;2024-03-08T09:30:36;156.43;;;65.88;;
46753;SDS011;32500;50.620;3.400;2024-03-08T09:33:03;163.82;;;67.28;;
46753;SDS011;32500;50.620;3.400;2024-03-08T09:35:30;158.68;;;66.10;;
46753;SDS011;32500;50.620;3.400;2024-03-08T09:37:55;159.75;;;65.45;;
46753;SDS011;32500;50.620;3.400;2024-03-08T09:40:21;164.70;;;67.72;;
46753;SDS011;32500;50.620;3.400;2024-03-08T09:42:50;158.32;;;65.60;;
46753;SDS011;32500;50.620;3.400;2024-03-08T09:45:17;156.23;;;65.90;;
46753;SDS011;32500;50.620;3.400;2024-03-08T09:47:47;160.43;;;66.68;;
46753;SDS011;32500;50.620;3.400;2024-03-08T09:50:14;162.18;;;66.43;;
46753;SDS011;32500;50.620;3.400;2024-03-08T09:52:46;157.48;;;66.10;;
46753;SDS011;32500;50.620;3.400;2024-03-08T09:55:13;157.48;;;66.55;;
46753;SDS011;32500;50.620;3.400;2024-03-08T09:57:41;161.13;;;65.60;;
46753;SDS011;32500;50.620;3.400;2024-03-08T10:00:28;160.80;;;65.65;;
46753;SDS011;32500;50.620;3.400;2024-03-08T10:02:54;159.18;;;65.57;;
46753;SDS011;32500;50.620;3.400;2024-03-08T10:05:25;157.40;;;64.70;;
46753;SDS011;32500;50.620;3.400;2024-03-08T10:07:50;156.48;;;65.13;;
46753;SDS011;32500;50.620;3.400;2024-03-08T10:10:16;159.10;;;65.32;;
46753;SDS011;32500;50.620;3.400;2024-03-08T10:12:42;156.80;;;65.22;;
46753;SDS011;32500;50.620;3.400;2024-03-08T10:15:08;160.93;;;65.60;;
46753;SDS011;32500;50.620;3.400;2024-03-08T10:17:34;158.15;;;65.53;;
46753;SDS011;32500;50.620;3.400;2024-03-08T10:20:00;157.38;;;66.10;;
46753;SDS011;32500;50.620;3.400;2024-03-08T10:22:27;156.75;;;65.43;;
46753;SDS011;32500;50.620;3.400;2024-03-08T10:24:54;155.68;;;64.28;;
46753;SDS011;32500;50.620;3.400;2024-03-08T10:27:20;157.20;;;64.90;;
46753;SDS011;32500;50.620;3.400;2024-03-08T10:29:46;160.77;;;66.40;;
46753;SDS011;32500;50.620;3.400;2024-03-08T10:32:13;155.93;;;64.82;;
46753;SDS011;32500;50.620;3.400;2024-03-08T10:34:38;158.43;;;65.13;;
46753;SDS011;32500;50.620;3.400;2024-03-08T10:37:06;157.02;;;66.25;;
46753;SDS011;32500;50.620;3.400;2024-03-08T10:39:35;156.52;;;64.55;;
46753;SDS011;32500;50.620;3.400;2024-03-08T10:42:02;159.80;;;64.97;;
46753;SDS011;32500;50.620;3.400;2024-03-08T10:49:49;158.15;;;65.32;;
46753;SDS011;32500;50.620;3.400;2024-03-08T10:52:19;156.10;;;64.82;;
46753;SDS011;32500;50.620;3.400;2024-03-08T10:54:45;158.70;;;65.07;;
46753;SDS011;32500;50.620;3.400;2024-03-08T10:57:14;159.70;;;65.55;;
46753;SDS011;32500;50.620;3.400;2024-03-08T10:59:43;159.60;;;65.32;;
46753;SDS011;32500;50.620;3.400;2024-03-08T11:02:10;158.80;;;64.55;;
46753;SDS011;32500;50.620;3.400;2024-03-08T11:04:37;159.60;;;65.47;;
46753;SDS011;32500;50.620;3.400;2024-03-08T11:07:03;159.80;;;65.07;;
46753;SDS011;32500;50.620;3.400;2024-03-08T11:09:32;160.63;;;64.53;;
46753;SDS011;32500;50.620;3.400;2024-03-08T11:14:50;155.73;;;63.97;;
46753;SDS011;32500;50.620;3.400;2024-03-08T11:17:25;155.23;;;63.28;;
46753;SDS011;32500;50.620;3.400;2024-03-08T11:19:52;158.65;;;64.32;;
46753;SDS011;32500;50.620;3.400;2024-03-08T11:22:27;156.82;;;63.35;;
46753;SDS011;32500;50.620;3.400;2024-03-08T11:25:02;155.23;;;63.28;;
46753;SDS011;32500;50.620;3.400;2024-03-08T11:27:33;153.55;;;62.65;;
46753;SDS011;32500;50.620;3.400;2024-03-08T11:30:00;155.93;;;62.88;;
46753;SDS011;32500;50.620;3.400;2024-03-08T11:32:43;152.43;;;62.42;;
46753;SDS011;32500;50.620;3.400;2024-03-08T11:35:22;152.73;;;61.05;;
46753;SDS011;32500;50.620;3.400;2024-03-08T11:37:48;155.02;;;62.50;;
46753;SDS011;32500;50.620;3.400;2024-03-08T11:40:14;155.75;;;62.90;;
46753;SDS011;32500;50.620;3.400;2024-03-08T11:42:48;154.52;;;62.58;;
46753;SDS011;32500;50.620;3.400;2024-03-08T11:45:16;153.10;;;61.45;;
46753;SDS011;32500;50.620;3.400;2024-03-08T11:47:46;155.55;;;61.40;;
46753;SDS011;32500;50.620;3.400;2024-03-08T11:50:12;155.20;;;61.80;;
46753;SDS011;32500;50.620;3.400;2024-03-08T11:52:38;154.90;;;61.70;;
46753;SDS011;32500;50.620;3.400;2024-03-08T11:55:05;151.88;;;61.42;;
46753;SDS011;32500;50.620;3.400;2024-03-08T11:57:31;155.32;;;62.05;;
46753;SDS011;32500;50.620;3.400;2024-03-08T11:59:57;153.32;;;62.75;;
46753;SDS011;32500;50.620;3.400;2024-03-08T12:02:31;156.32;;;64.03;;
46753;SDS011;32500;50.620;3.400;2024-03-08T12:05:05;159.23;;;63.38;;
46753;SDS011;32500;50.620;3.400;2024-03-08T12:07:31;155.43;;;62.95;;
46753;SDS011;32500;50.620;3.400;2024-03-08T12:12:52;154.90;;;63.45;;
46753;SDS011;32500;50.620;3.400;2024-03-08T12:15:19;156.48;;;63.35;;
46753;SDS011;32500;50.620;3.400;2024-03-08T12:17:47;157.20;;;64.60;;
46753;SDS011;32500;50.620;3.400;2024-03-08T12:22:43;160.13;;;64.50;;
46753;SDS011;32500;50.620;3.400;2024-03-08T12:25:10;162.10;;;66.00;;
46753;SDS011;32500;50.620;3.400;2024-03-08T12:27:40;160.13;;;66.50;;
46753;SDS011;32500;50.620;3.400;2024-03-08T12:30:23;160.15;;;66.50;;
46753;SDS011;32500;50.620;3.400;2024-03-08T12:32:55;161.98;;;65.25;;
46753;SDS011;32500;50.620;3.400;2024-03-08T12:35:25;160.90;;;66.18;;
46753;SDS011;32500;50.620;3.400;2024-03-08T12:37:53;160.40;;;65.18;;
46753;SDS011;32500;50.620;3.400;2024-03-08T12:40:29;159.35;;;65.78;;
46753;SDS011;32500;50.620;3.400;2024-03-08T12:43:00;162.75;;;65.40;;
46753;SDS011;32500;50.620;3.400;2024-03-08T12:45:31;161.70;;;66.65;;
46753;SDS011;32500;50.620;3.400;2024-03-08T12:47:57;161.55;;;65.32;;
46753;SDS011;32500;50.620;3.400;2024-03-08T12:50:24;160.10;;;65.57;;
46753;SDS011;32500;50.620;3.400;2024-03-08T12:52:50;162.85;;;65.07;;
46753;SDS011;32500;50.620;3.400;2024-03-08T12:55:17;164.43;;;65.55;;
46753;SDS011;32500;50.620;3.400;2024-03-08T12:57:44;159.35;;;65.15;;
46753;SDS011;32500;50.620;3.400;2024-03-08T13:00:10;161.70;;;66.28;;
46753;SDS011;32500;50.620;3.400;2024-03-08T13:02:42;159.95;;;66.28;;
46753;SDS011;32500;50.620;3.400;2024-03-08T13:05:07;162.52;;;68.32;;
46753;SDS011;32500;50.620;3.400;2024-03-08T13:07:35;160.52;;;67.18;;
46753;SDS011;32500;50.620;3.400;2024-03-08T13:10:02;159.85;;;67.53;;
46753;SDS011;32500;50.620;3.400;2024-03-08T13:12:29;160.52;;;66.40;;
46753;SDS011;32500;50.620;3.400;2024-03-08T13:14:55;163.32;;;67.50;;
46753;SDS011;32500;50.620;3.400;2024-03-08T13:17:21;160.88;;;66.40;;
46753;SDS011;32500;50.620;3.400;2024-03-08T13:19:47;163.10;;;67.53;;
46753;SDS011;32500;50.620;3.400;2024-03-08T13:22:13;162.45;;;65.80;;
46753;SDS011;32500;50.620;3.400;2024-03-08T13:24:41;160.25;;;66.53;;
46753;SDS011;32500;50.620;3.400;2024-03-08T13:27:09;160.73;;;66.80;;
46753;SDS011;32500;50.620;3.400;2024-03-08T13:29:47;160.98;;;65.63;;
46753;SDS011;32500;50.620;3.400;2024-03-08T13:32:17;161.52;;;65.72;;
46753;SDS011;32500;50.620;3.400;2024-03-08T13:34:45;157.40;;;65.07;;
46753;SDS011;32500;50.620;3.400;2024-03-08T13:37:12;159.50;;;65.95;;
46753;SDS011;32500;50.620;3.400;2024-03-08T13:39:41;161.18;;;66.32;;
46753;SDS011;32500;50.620;3.400;2024-03-08T13:42:09;157.30;;;65.20;;
46753;SDS011;32500;50.620;3.400;2024-03-08T13:44:37;156.90;;;64.85;;
46753;SDS011;32500;50.620;3.400;2024-03-08T13:47:16;160.60;;;65.68;;
46753;SDS011;32500;50.620;3.400;2024-03-08T13:49:42;158.25;;;65.47;;
46753;SDS011;32500;50.620;3.400;2024-03-08T13:52:09;158.88;;;65.88;;
46753;SDS011;32500;50.620;3.400;2024-03-08T13:54:41;156.98;;;63.95;;
46753;SDS011;32500;50.620;3.400;2024-03-08T13:57:07;157.25;;;64.28;;
46753;SDS011;32500;50.620;3.400;2024-03-08T13:59:35;158.55;;;64.05;;
46753;SDS011;32500;50.620;3.400;2024-03-08T14:02:01;156.18;;;64.18;;
46753;SDS011;32500;50.620;3.400;2024-03-08T14:04:28;155.75;;;63.10;;
46753;SDS011;32500;50.620;3.400;2024-03-08T14:06:54;158.63;;;64.25;;
46753;SDS011;32500;50.620;3.400;2024-03-08T14:09:24;157.45;;;63.00;;
46753;SDS011;32500;50.620;3.400;2024-03-08T14:11:54;160.93;;;63.47;;
46753;SDS011;32500;50.620;3.400;2024-03-08T14:14:21;155.30;;;62.85;;
46753;SDS011;32500;50.620;3.400;2024-03-08T14:16:48;158.10;;;62.80;;
46753;SDS011;32500;50.620;3.400;2024-03-08T14:19:14;158.80;;;63.58;;
46753;SDS011;32500;50.620;3.400;2024-03-08T14:21:40;157.07;;;63.47;;
46753;SDS011;32500;50.620;3.400;2024-03-08T14:24:07;156.27;;;62.58;;